Markleton, Pennsylvania
Current Conditions -  °F | °C
As of 8:35 PM on Friday 19 Dec 2014 (Local Time) from K2G9 Reporting Station
Overcast Overcast  
Wind Chill: 16°   Ceiling: 1600
Heat Index: 27°   Visibility: 10mi
Dew Point: 19°   Wind: 13mph
Humidity: 74%   Direction: 310°NW
Pressure: 30.18"   Gusts: 18mph
Location:  39.86°N, 79.23°W
Report Text: K2G9 200135Z AUTO 31011G16KT 10SM OVC016 M03/M07 A3018 RMK AO2
Loading
Personal Weather Stations






























Interactive Weather Map New forecast layout! Learn more

10-Day Weather Forecast

Advertisements
Track Severe Weather on mobile